Time;durP1;ratioP1;P1;durP2;ratioP2;P2;SDS_P1;SDS_P2;PMS_P1;PMS_P2;Temp;Humidity;BMP_temperature;BMP_pressure;BME280_temperature;BME280_humidity;BME280_pressure;Samples;Min_cycle;Max_cycle;Signal;HPM_P1;HPM_P2
2022/12/30 00:00:41;;;;;;;9.37;4.37;;;;;;;8.85;100.00;100000.01;5084460;56;1139712;-67
2022/12/30 00:05:48;;;;;;;7.53;3.73;;;;;;;8.85;100.00;99998.69;5052010;56;1139016;-68
2022/12/30 00:10:54;;;;;;;10.67;3.93;;;;;;;8.87;100.00;100006.45;5035197;57;1136922;-67
2022/12/30 00:37:26;;;;;;;5.20;3.35;;;;;;;8.71;100.00;100022.16;5010709;57;1138893;-70
2022/12/30 00:47:55;;;;;;;6.15;3.30;;;;;;;8.67;100.00;100037.03;5037280;57;1138876;-70
2022/12/30 00:58:25;;;;;;;;;;;;;;;8.60;100.00;100034.49;5053741;57;1138898;-71
2022/12/30 01:03:31;;;;;;;9.80;3.35;;;;;;;8.59;100.00;100049.95;5037865;57;976245;-69
2022/12/30 01:08:37;;;;;;;6.08;3.37;;;;;;;8.58;100.00;100043.83;5040047;57;1167510;-65
2022/12/30 01:13:45;;;;;;;6.87;3.57;;;;;;;8.58;100.00;100049.10;5037745;56;1139151;-69
2022/12/30 01:18:52;;;;;;;5.67;3.00;;;;;;;8.59;100.00;100050.78;5059632;57;1138800;-68
2022/12/30 01:23:58;;;;;;;5.90;3.37;;;;;;;8.59;100.00;100049.47;5065682;56;1139877;-67
2022/12/30 01:29:03;;;;;;;5.73;3.13;;;;;;;8.59;100.00;100052.58;5061647;56;1138884;-65
2022/12/30 01:34:09;;;;;;;7.97;3.47;;;;;;;8.61;100.00;100044.92;5081571;56;1138978;-69
2022/12/30 01:39:15;;;;;;;6.67;2.93;;;;;;;8.56;100.00;100049.70;5033875;57;1138854;-68
2022/12/30 01:44:56;;;;;;;11.77;3.60;;;;;;;8.52;100.00;100045.64;5033765;57;1139672;-71
2022/12/30 01:50:14;;;;;;;7.55;3.42;;;;;;;8.48;100.00;100057.36;5024755;56;1141017;-65
2022/12/30 01:55:42;;;;;;;6.17;3.07;;;;;;;8.41;100.00;100068.00;5054694;56;1139466;-67
2022/12/30 02:00:50;;;;;;;6.03;3.43;;;;;;;8.36;100.00;100063.58;5033056;57;1138736;-69
2022/12/30 02:05:55;;;;;;;5.40;2.60;;;;;;;8.33;100.00;100075.18;5098559;56;1138685;-65
2022/12/30 02:11:04;;;;;;;5.17;3.00;;;;;;;8.34;100.00;100074.22;5074571;56;1139293;-70
2022/12/30 02:16:30;;;;;;;4.73;2.83;;;;;;;8.31;100.00;100078.84;5035729;57;1138806;-69
2022/12/30 02:21:43;;;;;;;3.12;1.90;;;;;;;8.29;100.00;100080.75;4868666;59;1139740;-70
2022/12/30 02:27:05;;;;;;;2.93;2.03;;;;;;;8.29;100.00;100082.07;4937664;58;1138883;-68
2022/12/30 02:32:19;;;;;;;5.10;1.80;;;;;;;8.26;100.00;100086.24;4951161;58;1139022;-66
2022/12/30 02:37:41;;;;;;;;;;;;;;;8.28;100.00;100077.75;4866717;59;1252680;-66
2022/12/30 02:48:29;;;;;;;5.03;2.17;;;;;;;8.26;100.00;100091.52;5040872;56;1136737;-68
2022/12/30 02:53:39;;;;;;;4.20;2.55;;;;;;;8.28;100.00;100086.50;5087422;56;1139059;-68
2022/12/30 03:03:56;;;;;;;5.07;2.17;;;;;;;8.27;100.00;100094.03;5034782;56;1138905;-66
2022/12/30 03:04:39;;;;;;;3.30;2.20;;;;;;;8.25;100.00;100101.21;5067506;56;1138891;-69
2022/12/30 03:15:37;;;;;;;2.60;1.57;;;;;;;8.22;100.00;100110.69;5068611;56;1138797;-70
2022/12/30 03:20:45;;;;;;;4.55;1.37;;;;;;;8.18;100.00;100101.32;5096436;56;1138816;-67
2022/12/30 03:31:18;;;;;;;6.20;1.67;;;;;;;8.23;100.00;100115.48;4999726;57;1138786;-67
2022/12/30 03:36:30;;;;;;;6.70;1.55;;;;;;;8.23;100.00;100118.11;4961863;57;1138965;-67
2022/12/30 03:41:38;;;;;;;6.30;1.30;;;;;;;8.23;100.00;100111.52;4953067;57;1138819;-69
2022/12/30 03:46:47;;;;;;;6.87;1.27;;;;;;;8.25;100.00;100123.60;5013313;56;1139232;-70
2022/12/30 03:51:53;;;;;;;1.87;1.20;;;;;;;8.23;100.00;100136.55;4957088;56;1138933;-67
2022/12/30 03:56:58;;;;;;;4.80;1.50;;;;;;;8.21;100.00;100145.04;4984877;56;1138762;-71
2022/12/30 04:02:04;;;;;;;3.13;1.30;;;;;;;8.19;100.00;100157.48;5107003;56;1138752;-68
2022/12/30 04:07:10;;;;;;;1.93;1.03;;;;;;;8.18;100.00;100154.48;5128143;56;1138875;-69
2022/12/30 04:12:15;;;;;;;2.98;1.62;;;;;;;8.15;100.00;100172.66;5127191;56;1139037;-70
2022/12/30 04:17:21;;;;;;;3.53;1.67;;;;;;;8.16;100.00;100182.25;5145441;56;1138749;-67
2022/12/30 04:22:28;;;;;;;3.03;1.70;;;;;;;8.14;100.00;100193.37;5056525;56;1138756;-68
2022/12/30 04:27:34;;;;;;;3.47;1.95;;;;;;;8.12;100.00;100193.47;5059769;56;1138831;-67
2022/12/30 04:32:39;;;;;;;6.83;1.47;;;;;;;8.12;100.00;100208.44;5091953;56;1138952;-69
2022/12/30 04:37:45;;;;;;;2.17;1.10;;;;;;;8.11;100.00;100214.18;5060050;56;1138873;-67
2022/12/30 04:42:51;;;;;;;5.43;2.20;;;;;;;8.10;100.00;100209.86;5055068;56;1138862;-68
2022/12/30 04:47:57;;;;;;;3.80;1.40;;;;;;;8.12;100.00;100214.55;5099264;56;1138877;-69
2022/12/30 04:53:03;;;;;;;5.67;1.10;;;;;;;8.10;100.00;100223.50;5057782;56;1138950;-67
2022/12/30 04:58:09;;;;;;;4.17;1.83;;;;;;;8.10;100.00;100231.41;5027226;56;1138873;-67
2022/12/30 05:03:15;;;;;;;2.58;1.25;;;;;;;7.99;100.00;100232.66;5076505;56;1138733;-68
2022/12/30 05:08:21;;;;;;;2.02;1.20;;;;;;;7.99;100.00;100232.66;5053832;56;1139017;-71
2022/12/30 05:13:27;;;;;;;3.77;1.17;;;;;;;7.90;100.00;100241.23;5055412;56;1138758;-68
2022/12/30 05:18:33;;;;;;;2.00;1.00;;;;;;;7.85;100.00;100249.91;5065295;56;1139050;-67
2022/12/30 05:29:06;;;;;;;3.30;1.30;;;;;;;7.70;100.00;100250.52;5100456;56;1190710;-65
2022/12/30 05:34:12;;;;;;;3.23;1.20;;;;;;;7.66;100.00;100257.78;5078751;56;1138705;-69
2022/12/30 05:39:17;;;;;;;3.70;1.00;;;;;;;7.58;100.00;100272.44;5062370;57;1138865;-69
2022/12/30 05:44:25;;;;;;;3.97;1.10;;;;;;;7.53;100.00;100279.80;5044713;56;1138839;-66
2022/12/30 05:49:32;;;;;;;4.00;1.10;;;;;;;7.46;100.00;100286.44;5080860;56;1139014;-69
2022/12/30 05:54:37;;;;;;;9.63;2.37;;;;;;;7.39;100.00;100298.69;5067287;56;1138804;-68
2022/12/30 05:59:43;;;;;;;4.23;1.53;;;;;;;7.29;100.00;100304.21;5060113;57;1138882;-67
2022/12/30 06:04:49;;;;;;;3.37;1.73;;;;;;;7.22;100.00;100308.19;5075012;56;1138960;-69
2022/12/30 06:09:54;;;;;;;8.57;1.40;;;;;;;7.18;100.00;100324.30;5120154;56;1138838;-69
2022/12/30 06:15:00;;;;;;;7.53;1.60;;;;;;;7.13;100.00;100337.73;5167504;56;1138936;-70
2022/12/30 06:20:07;;;;;;;8.93;1.87;;;;;;;7.08;100.00;100347.70;5125085;56;1136903;-70
2022/12/30 06:25:12;;;;;;;8.60;1.60;;;;;;;7.05;100.00;100356.64;5115424;56;1138872;-67
2022/12/30 06:30:18;;;;;;;4.80;1.10;;;;;;;7.02;100.00;100363.44;5133840;56;1137366;-68
2022/12/30 06:35:25;;;;;;;7.80;1.67;;;;;;;7.00;100.00;100378.94;5041000;56;1138867;-68
2022/12/30 06:40:30;;;;;;;3.70;1.13;;;;;;;6.98;100.00;100372.45;5076407;56;1138735;-68
2022/12/30 06:45:36;;;;;;;6.07;1.47;;;;;;;6.95;100.00;100379.23;5066080;56;1136802;-68
2022/12/30 06:50:42;;;;;;;6.00;1.52;;;;;;;6.99;100.00;100387.77;5117316;56;1138900;-68
2022/12/30 06:55:48;;;;;;;3.60;1.25;;;;;;;6.95;100.00;100400.26;4968020;57;1137475;-70
2022/12/30 07:00:54;;;;;;;5.28;1.50;;;;;;;6.91;100.00;100400.08;5089049;56;1139135;-69
2022/12/30 07:06:00;;;;;;;10.28;2.15;;;;;;;6.87;100.00;100409.59;5065896;56;1138829;-68
2022/12/30 07:11:06;;;;;;;7.87;1.50;;;;;;;6.81;100.00;100417.39;5041969;57;1138756;-69
2022/12/30 07:16:12;;;;;;;7.43;2.13;;;;;;;6.78;100.00;100426.77;5042919;56;1138973;-68
2022/12/30 07:21:18;;;;;;;9.30;3.83;;;;;;;6.55;100.00;100441.38;5128673;56;1136669;-69
2022/12/30 07:26:23;;;;;;;4.67;2.00;;;;;;;6.55;100.00;100441.38;5041228;57;1136877;-69
2022/12/30 07:31:29;;;;;;;6.63;2.30;;;;;;;6.52;100.00;100455.16;5041703;56;1138874;-69
2022/12/30 07:36:35;;;;;;;6.03;2.87;;;;;;;6.44;100.00;100471.38;5057721;56;1136851;-69
2022/12/30 07:41:41;;;;;;;12.53;3.93;;;;;;;6.40;100.00;100481.72;5061561;57;1138897;-67
2022/12/30 07:46:48;;;;;;;7.13;2.20;;;;;;;6.33;100.00;100484.33;5037941;56;1138676;-69
2022/12/30 07:51:54;;;;;;;6.67;2.77;;;;;;;6.35;100.00;100491.19;5037780;57;1136789;-69
2022/12/30 07:56:59;;;;;;;8.00;2.93;;;;;;;6.38;100.00;100505.08;5057576;57;1136789;-66
2022/12/30 08:02:06;;;;;;;9.65;2.70;;;;;;;6.43;100.00;100524.86;5039122;56;1136913;-69
2022/12/30 08:07:11;;;;;;;15.23;4.12;;;;;;;6.48;100.00;100521.50;5029528;57;1138859;-69
2022/12/30 08:12:17;;;;;;;10.93;3.62;;;;;;;6.46;100.00;100534.34;5057052;57;1138829;-68
2022/12/30 08:17:23;;;;;;;5.67;2.60;;;;;;;6.52;100.00;100549.28;5037270;57;1138836;-70
2022/12/30 08:22:29;;;;;;;14.23;4.17;;;;;;;6.65;100.00;100562.52;5055758;56;1138892;-67
2022/12/30 08:27:35;;;;;;;9.50;3.83;;;;;;;6.77;100.00;100568.80;5121989;56;1138863;-67
2022/12/30 08:32:41;;;;;;;9.67;3.47;;;;;;;6.91;100.00;100581.48;5120831;56;1138906;-67
2022/12/30 08:37:47;;;;;;;10.63;3.20;;;;;;;6.97;100.00;100592.10;5037392;57;1138746;-66
2022/12/30 08:42:53;;;;;;;9.03;2.07;;;;;;;7.03;100.00;100602.22;5075660;56;1140996;-68
2022/12/30 08:47:59;;;;;;;8.30;3.22;;;;;;;7.08;100.00;100605.89;5078555;56;1138772;-68
2022/12/30 08:53:05;;;;;;;6.77;1.60;;;;;;;7.13;100.00;100610.41;5042681;57;1147422;-69
2022/12/30 08:58:11;;;;;;;13.23;2.73;;;;;;;7.22;100.00;100613.77;5042712;57;1138904;-70
2022/12/30 09:03:16;;;;;;;3.72;1.62;;;;;;;7.28;100.00;100626.09;5062681;57;1141024;-68
2022/12/30 09:08:23;;;;;;;13.78;2.65;;;;;;;7.32;100.00;100626.28;5043398;57;1138847;-68
2022/12/30 09:13:30;;;;;;;6.50;1.70;;;;;;;7.36;100.00;100630.86;5043289;56;1141038;-70
2022/12/30 09:18:36;;;;;;;6.03;2.00;;;;;;;7.39;100.00;100648.62;5043575;56;1136877;-71
2022/12/30 09:23:42;;;;;;;6.63;1.77;;;;;;;7.47;100.00;100648.16;5077821;56;1138862;-67
2022/12/30 09:28:48;;;;;;;11.60;1.93;;;;;;;7.54;100.00;100644.19;4956069;57;1138840;-68
2022/12/30 09:33:54;;;;;;;11.03;1.90;;;;;;;7.57;100.00;100640.52;4970553;57;1138760;-67
2022/12/30 09:39:00;;;;;;;5.87;2.00;;;;;;;7.62;100.00;100637.13;4996628;57;1140993;-68
2022/12/30 09:44:16;;;;;;;8.27;1.50;;;;;;;7.67;100.00;100641.61;4971529;57;1136759;-70
2022/12/30 09:49:29;;;;;;;7.27;2.03;;;;;;;7.70;100.00;100637.01;5081005;56;1139596;-68
2022/12/30 09:54:37;;;;;;;7.65;2.20;;;;;;;7.75;100.00;100644.16;5092491;56;1139037;-70
2022/12/30 09:59:47;;;;;;;11.30;1.80;;;;;;;7.80;100.00;100633.30;5114405;56;1136941;-67
2022/12/30 10:04:53;;;;;;;8.87;1.53;;;;;;;7.86;100.00;100626.81;5084467;56;1140819;-68
2022/12/30 10:10:22;;;;;;;3.77;1.70;;;;;;;7.91;100.00;100631.31;5059028;56;1136524;-68
2022/12/30 10:15:44;;;;;;;8.60;1.60;;;;;;;7.93;100.00;100631.59;5068868;56;1136797;-69
2022/12/30 10:21:15;;;;;;;7.97;2.53;;;;;;;7.98;100.00;100622.91;5075683;56;1138748;-68
2022/12/30 10:26:30;;;;;;;4.80;2.00;;;;;;;8.04;100.00;100621.67;5058788;56;1136757;-69
2022/12/30 10:31:38;;;;;;;8.90;1.90;;;;;;;8.09;100.00;100616.95;5072177;56;1136802;-72
2022/12/30 10:37:15;;;;;;;8.80;2.63;;;;;;;8.11;100.00;100604.50;5061977;56;1138914;-69
2022/12/30 10:42:31;;;;;;;10.03;2.42;;;;;;;8.15;100.00;100605.99;5057589;57;1136682;-72
2022/12/30 10:48:02;;;;;;;12.53;3.53;;;;;;;8.18;100.00;100612.38;5010297;56;1138784;-71
2022/12/30 10:53:24;;;;;;;9.77;1.63;;;;;;;8.24;100.00;100601.92;5088042;56;1140914;-68
2022/12/30 10:58:44;;;;;;;9.93;2.47;;;;;;;8.27;100.00;100604.33;5102211;56;1136844;-69
2022/12/30 11:03:56;;;;;;;11.43;2.40;;;;;;;8.32;100.00;100612.34;5106755;56;1136722;-64
2022/12/30 11:09:18;;;;;;;8.07;1.87;;;;;;;8.38;100.00;100611.10;5037584;57;1138913;-68
2022/12/30 11:14:44;;;;;;;12.03;2.83;;;;;;;8.46;100.00;100608.78;5006852;57;1138997;-68
2022/12/30 11:19:56;;;;;;;14.90;3.97;;;;;;;8.53;100.00;100621.08;5037087;56;1141055;-65
2022/12/30 11:25:27;;;;;;;11.30;2.77;;;;;;;8.56;100.00;100626.13;5090541;56;1138685;-67
2022/12/30 11:30:46;;;;;;;4.17;1.73;;;;;;;8.57;99.63;100620.75;5086407;56;1138706;-70
2022/12/30 11:35:53;;;;;;;9.93;2.23;;;;;;;8.65;100.00;100621.09;5111592;56;1134661;-66
2022/12/30 11:41:02;;;;;;;9.57;2.00;;;;;;;8.75;98.14;100613.39;5141360;56;1136710;-68
2022/12/30 11:46:12;;;;;;;17.23;5.07;;;;;;;8.90;98.99;100607.53;5084249;56;1134643;-66
2022/12/30 11:51:28;;;;;;;10.35;2.22;;;;;;;9.39;97.32;100599.19;5093328;56;1136875;-66
2022/12/30 11:56:35;;;;;;;11.30;2.90;;;;;;;9.80;93.50;100601.95;5056924;56;1138963;-70
2022/12/30 12:01:47;;;;;;;11.63;1.70;;;;;;;10.05;92.75;100604.97;5067046;56;1138799;-69
2022/12/30 12:06:53;;;;;;;12.90;2.87;;;;;;;10.31;90.91;100600.41;5113785;56;1140833;-68
2022/12/30 12:12:02;;;;;;;11.37;2.93;;;;;;;10.57;91.06;100603.23;5086553;56;1140951;-69
2022/12/30 12:17:24;;;;;;;9.50;2.17;;;;;;;10.84;88.70;100603.79;5130292;56;1140898;-71
2022/12/30 12:22:49;;;;;;;6.93;2.03;;;;;;;10.93;86.84;100612.32;5078917;56;1139042;-67
2022/12/30 12:27:55;;;;;;;6.63;1.87;;;;;;;11.14;86.75;100629.67;5082391;56;1138819;-67
2022/12/30 12:33:17;;;;;;;11.23;2.27;;;;;;;11.25;85.79;100623.52;5062658;57;1138627;-70
2022/12/30 12:38:42;;;;;;;8.43;2.00;;;;;;;10.98;84.70;100619.07;5042125;56;1140735;-70
2022/12/30 12:44:01;;;;;;;11.33;2.80;;;;;;;10.81;84.59;100609.78;5042487;56;1138762;-69
2022/12/30 12:49:32;;;;;;;11.07;2.90;;;;;;;10.72;86.02;100606.03;5073533;56;1140720;-69
2022/12/30 12:55:08;;;;;;;9.06;2.12;;;;;;;10.99;86.89;100603.55;5040006;57;1140940;-68
2022/12/30 13:00:20;;;;;;;12.28;2.60;;;;;;;11.56;84.49;100594.13;4951435;57;1139005;-68
2022/12/30 13:05:56;;;;;;;12.58;3.77;;;;;;;11.85;82.78;100608.53;5068039;56;1140855;-69
2022/12/30 13:11:23;;;;;;;7.63;1.97;;;;;;;11.78;79.92;100615.77;5044504;56;1141047;-68
2022/12/30 13:16:39;;;;;;;8.03;2.10;;;;;;;11.78;79.92;100615.77;5046437;56;1138931;-71
2022/12/30 13:21:48;;;;;;;11.60;3.62;;;;;;;11.33;81.44;100617.61;5054119;56;1138894;-69
2022/12/30 13:26:55;;;;;;;12.40;3.97;;;;;;;10.92;84.06;100619.05;5077648;56;1140724;-68
2022/12/30 13:32:14;;;;;;;13.33;4.60;;;;;;;10.56;85.98;100617.41;5047740;56;1140753;-68
2022/12/30 13:37:45;;;;;;;17.30;4.43;;;;;;;10.23;87.53;100614.69;5043331;56;1140937;-69
2022/12/30 13:42:55;;;;;;;15.87;3.23;;;;;;;9.85;89.12;100633.69;5059920;56;1140874;-69
2022/12/30 13:48:21;;;;;;;11.60;3.13;;;;;;;9.51;90.18;100631.78;5062743;56;1138880;-70
2022/12/30 13:53:39;;;;;;;21.33;4.17;;;;;;;9.28;91.61;100624.66;5055172;56;1136897;-70
2022/12/30 13:58:54;;;;;;;12.87;3.43;;;;;;;9.07;92.58;100618.61;5070193;56;1136687;-69
2022/12/30 14:04:22;;;;;;;17.67;4.43;;;;;;;8.98;93.59;100613.98;5070913;56;1136900;-68
2022/12/30 14:09:35;;;;;;;12.43;4.80;;;;;;;8.89;94.16;100605.84;5080388;56;1137119;-70
2022/12/30 14:14:45;;;;;;;9.98;3.72;;;;;;;8.78;94.71;100606.12;5057840;57;1136686;-69
2022/12/30 14:19:55;;;;;;;12.93;3.40;;;;;;;8.69;95.27;100600.17;5038144;56;1134592;-70
2022/12/30 14:25:05;;;;;;;9.23;3.03;;;;;;;8.63;95.74;100611.13;5092369;56;1136755;-68
2022/12/30 14:30:24;;;;;;;11.30;4.17;;;;;;;8.62;96.26;100617.34;4951979;58;1134690;-66
2022/12/30 14:35:30;;;;;;;18.40;5.50;;;;;;;8.56;96.47;100612.47;5054261;56;1136612;-71
2022/12/30 14:40:37;;;;;;;147.90;32.55;;;;;;;8.53;96.81;100627.67;5038146;57;1136748;-66
2022/12/30 14:45:43;;;;;;;285.63;131.03;;;;;;;8.50;97.02;100631.36;5057118;57;1140851;-70
2022/12/30 14:50:50;;;;;;;105.73;45.37;;;;;;;8.40;96.89;100637.70;5050084;56;1142963;-66
2022/12/30 14:55:55;;;;;;;184.67;58.27;;;;;;;8.27;96.99;100646.02;5117350;56;1141300;-71
2022/12/30 15:01:06;;;;;;;74.50;21.73;;;;;;;8.19;97.44;100649.64;5141867;56;1140856;-70
2022/12/30 15:06:15;;;;;;;19.90;9.12;;;;;;;8.12;97.75;100636.02;5079072;56;1138682;-71
2022/12/30 15:11:23;;;;;;;42.93;14.83;;;;;;;8.05;97.83;100637.37;5040495;56;1136787;-67
2022/12/30 15:16:32;;;;;;;40.87;23.23;;;;;;;7.94;98.10;100637.70;5081205;56;1138834;-67
2022/12/30 15:21:41;;;;;;;259.17;95.70;;;;;;;7.85;98.40;100633.02;5066162;56;1138599;-66
2022/12/30 15:26:51;;;;;;;249.17;90.57;;;;;;;7.76;98.77;100635.78;5068947;56;1140864;-70
2022/12/30 15:32:04;;;;;;;413.40;145.97;;;;;;;7.73;98.98;100632.02;5067352;56;1142980;-67
2022/12/30 15:37:23;;;;;;;462.68;165.37;;;;;;;7.75;99.40;100623.09;5061510;56;1145014;-69
2022/12/30 15:42:45;;;;;;;607.77;217.17;;;;;;;7.75;99.68;100624.88;5042064;56;1145235;-66
2022/12/30 15:47:56;;;;;;;662.03;220.63;;;;;;;7.70;100.00;100616.42;5083202;56;1145238;-68
2022/12/30 15:53:06;;;;;;;89.30;37.13;;;;;;;7.64;100.00;100621.59;5120586;56;1145062;-69
2022/12/30 15:58:17;;;;;;;51.67;22.13;;;;;;;7.55;100.00;100627.92;5087573;56;1140787;-67
2022/12/30 16:03:22;;;;;;;42.90;17.27;;;;;;;7.46;100.00;100632.46;5080184;56;1141030;-67
2022/12/30 16:08:32;;;;;;;29.37;12.82;;;;;;;7.38;100.00;100641.66;5043959;56;1143151;-68
2022/12/30 16:13:45;;;;;;;33.33;11.53;;;;;;;7.39;100.00;100643.36;5095034;56;1143092;-67
2022/12/30 16:19:17;;;;;;;28.73;10.00;;;;;;;7.41;100.00;100641.95;5127721;56;1143092;-67
2022/12/30 16:24:35;;;;;;;84.80;39.15;;;;;;;7.36;100.00;100638.28;5127211;56;1142924;-71
2022/12/30 16:29:44;;;;;;;131.10;31.90;;;;;;;7.30;100.00;100616.31;5127379;56;1140926;-69
2022/12/30 16:34:51;;;;;;;103.33;26.43;;;;;;;7.23;100.00;100598.37;5089921;56;1143091;-70
2022/12/30 16:40:02;;;;;;;59.50;25.13;;;;;;;7.18;100.00;100600.46;5042910;56;1142899;-69
2022/12/30 16:45:17;;;;;;;50.57;22.10;;;;;;;7.10;100.00;100596.13;5106459;56;1140862;-66
2022/12/30 16:50:24;;;;;;;33.02;12.73;;;;;;;7.03;100.00;100598.28;5147834;56;1140850;-68
2022/12/30 16:55:29;;;;;;;29.30;9.78;;;;;;;7.03;100.00;100589.92;5126804;56;1142979;-67
2022/12/30 17:00:35;;;;;;;48.98;21.73;;;;;;;7.01;100.00;100582.63;5125739;56;1141041;-68
2022/12/30 17:05:42;;;;;;;81.00;24.80;;;;;;;7.01;100.00;100576.52;5090465;56;1142953;-66
2022/12/30 17:11:00;;;;;;;69.97;25.07;;;;;;;6.98;100.00;100579.33;5037622;56;1140751;-71
2022/12/30 17:16:04;;;;;;;30.60;11.10;;;;;;;6.96;100.00;100574.63;5036856;56;1140772;-70
2022/12/30 17:21:10;;;;;;;21.70;8.57;;;;;;;6.92;100.00;100559.51;5057350;56;1140901;-67
2022/12/30 17:26:20;;;;;;;37.07;13.20;;;;;;;6.92;100.00;100561.29;5025722;56;1141005;-68
2022/12/30 17:31:30;;;;;;;21.50;9.17;;;;;;;6.93;100.00;100550.69;5042463;56;1151862;-71
2022/12/30 17:36:36;;;;;;;28.17;12.07;;;;;;;6.87;100.00;100548.45;5077599;56;1140950;-67
2022/12/30 17:41:42;;;;;;;29.37;12.33;;;;;;;6.85;100.00;100547.70;5056223;57;1140803;-68
2022/12/30 17:46:47;;;;;;;38.90;16.87;;;;;;;6.84;100.00;100555.68;5066793;56;1140895;-70
2022/12/30 17:51:53;;;;;;;44.90;21.63;;;;;;;6.87;100.00;100552.40;5037212;56;1142986;-70
2022/12/30 17:57:02;;;;;;;52.03;22.90;;;;;;;6.89;100.00;100540.45;5057246;56;1140887;-70
2022/12/30 18:02:06;;;;;;;81.23;34.07;;;;;;;6.90;100.00;100533.78;5038736;57;1140894;-70
2022/12/30 18:07:12;;;;;;;28.60;11.63;;;;;;;6.91;100.00;100543.83;5114376;56;1140905;-70
2022/12/30 18:12:18;;;;;;;34.57;14.53;;;;;;;6.93;100.00;100540.17;5149858;56;1142962;-66
2022/12/30 18:17:26;;;;;;;20.25;7.65;;;;;;;6.93;100.00;100538.85;5129365;56;1142808;-68
2022/12/30 18:22:33;;;;;;;36.83;19.77;;;;;;;6.89;100.00;100533.41;5130228;56;1145232;-71
2022/12/30 18:27:39;;;;;;;28.15;11.30;;;;;;;6.88;100.00;100524.30;5105176;56;1140927;-70
2022/12/30 18:32:44;;;;;;;26.10;12.00;;;;;;;6.77;100.00;100524.13;5133599;56;1143088;-66
2022/12/30 18:37:50;;;;;;;21.97;9.90;;;;;;;6.77;100.00;100524.13;5057517;56;1140911;-65
2022/12/30 18:42:56;;;;;;;24.83;9.93;;;;;;;6.76;100.00;100513.23;5056038;56;1138905;-67
2022/12/30 18:48:02;;;;;;;59.70;23.47;;;;;;;6.73;100.00;100498.48;5075728;56;1140760;-67
2022/12/30 18:53:08;;;;;;;33.87;12.50;;;;;;;6.70;100.00;100487.72;5064803;56;1140761;-67
2022/12/30 18:58:13;;;;;;;25.40;9.40;;;;;;;6.64;100.00;100478.89;5065442;56;1140860;-68
2022/12/30 19:03:19;;;;;;;24.67;10.27;;;;;;;6.64;100.00;100468.84;5081565;56;1149279;-70
2022/12/30 19:08:25;;;;;;;32.70;12.10;;;;;;;6.62;100.00;100460.21;5055672;56;1140989;-69
2022/12/30 19:13:34;;;;;;;20.53;8.93;;;;;;;6.60;100.00;100448.48;5069989;56;1140928;-67
2022/12/30 19:18:41;;;;;;;46.83;18.37;;;;;;;6.60;100.00;100448.48;5052697;56;1141073;-67
2022/12/30 19:23:48;;;;;;;77.87;30.40;;;;;;;6.62;100.00;100438.72;5090712;56;1142996;-67
2022/12/30 19:28:53;;;;;;;49.73;22.83;;;;;;;6.53;100.00;100402.52;5054417;56;1140832;-67
2022/12/30 19:34:03;;;;;;;34.70;14.80;;;;;;;6.53;100.00;100402.52;5069196;56;1140951;-68
2022/12/30 19:39:12;;;;;;;39.07;18.20;;;;;;;6.55;100.00;100379.63;5069951;56;1142969;-70
2022/12/30 19:44:24;;;;;;;34.53;14.97;;;;;;;6.59;100.00;100389.45;5053484;56;1143095;-67
2022/12/30 19:49:31;;;;;;;36.80;13.15;;;;;;;6.60;100.00;100392.45;5054557;56;1140980;-66
2022/12/30 19:54:37;;;;;;;35.68;16.48;;;;;;;6.57;100.00;100366.40;5051707;56;1141024;-67
2022/12/30 19:59:43;;;;;;;40.67;14.83;;;;;;;6.57;100.00;100342.75;5062005;56;1142918;-68
2022/12/30 20:04:48;;;;;;;22.93;10.53;;;;;;;6.59;100.00;100343.47;5042943;56;1140819;-67
2022/12/30 20:09:54;;;;;;;25.33;10.43;;;;;;;6.59;100.00;100346.09;5042978;56;1140882;-70
2022/12/30 20:15:03;;;;;;;27.17;11.50;;;;;;;6.59;100.00;100345.63;5062407;56;1142920;-66
2022/12/30 20:20:08;;;;;;;25.80;9.83;;;;;;;6.59;100.00;100348.25;5053548;56;1143163;-71
2022/12/30 20:25:14;;;;;;;18.17;7.67;;;;;;;6.56;100.00;100335.34;5073049;56;1138981;-66
2022/12/30 20:30:21;;;;;;;12.43;6.33;;;;;;;6.52;100.00;100360.58;5093373;56;1140964;-68
2022/12/30 20:35:26;;;;;;;23.45;9.70;;;;;;;6.45;100.00;100353.55;5042841;56;1138815;-66
2022/12/30 20:40:33;;;;;;;23.57;11.22;;;;;;;6.42;100.00;100352.42;5053239;56;1138737;-69
2022/12/30 20:45:41;;;;;;;23.27;10.93;;;;;;;6.40;100.00;100349.07;5056315;56;1142972;-68
2022/12/30 20:50:47;;;;;;;18.77;8.70;;;;;;;6.36;100.00;100350.20;5078356;56;1141062;-69
2022/12/30 20:55:53;;;;;;;25.67;12.47;;;;;;;6.35;100.00;100346.72;5061998;56;1138902;-68
2022/12/30 21:01:12;;;;;;;37.50;13.43;;;;;;;6.34;100.00;100330.59;5057876;56;1143054;-70
2022/12/30 21:06:19;;;;;;;17.32;8.58;;;;;;;6.32;100.00;100315.39;5069008;56;1140782;-71
2022/12/30 21:11:27;;;;;;;38.53;12.80;;;;;;;6.32;100.00;100304.05;5066337;55;1138858;-70
2022/12/30 21:16:35;;;;;;;50.57;21.67;;;;;;;6.31;100.00;100299.73;5049427;56;1142959;-70
2022/12/30 21:21:41;;;;;;;43.55;18.77;;;;;;;6.30;100.00;100299.35;5047942;56;1141030;-69
2022/12/30 21:26:47;;;;;;;36.20;16.67;;;;;;;6.32;100.00;100294.85;5147110;56;1143120;-72
2022/12/30 21:31:52;;;;;;;35.23;14.20;;;;;;;6.32;100.00;100288.28;5119609;56;1142998;-67
2022/12/30 21:36:58;;;;;;;43.07;15.33;;;;;;;6.30;100.00;100288.37;5042479;57;1140856;-69
2022/12/30 22:03:46;;;;;;;43.57;16.40;;;;;;;6.33;100.00;100275.53;4989460;57;1140796;-68
2022/12/30 22:08:52;;;;;;;23.30;13.00;;;;;;;6.35;100.00;100280.22;5089442;56;1143135;-67
2022/12/30 22:13:58;;;;;;;16.10;7.13;;;;;;;6.34;100.00;100263.61;5110131;56;1140923;-68
2022/12/30 22:19:05;;;;;;;12.93;6.13;;;;;;;6.33;100.00;100256.67;5088273;56;1138932;-64
2022/12/30 22:24:10;;;;;;;11.10;5.57;;;;;;;6.37;100.00;100223.65;5102557;56;1138747;-69
2022/12/30 22:29:16;;;;;;;16.27;7.33;;;;;;;6.37;100.00;100223.65;5079248;56;1141002;-68
2022/12/30 22:34:22;;;;;;;16.30;6.07;;;;;;;6.46;100.00;100233.08;5065698;56;1138914;-66
2022/12/30 22:39:29;;;;;;;8.83;4.75;;;;;;;6.46;100.00;100217.31;5096378;56;1138978;-70
2022/12/30 22:44:35;;;;;;;13.45;6.00;;;;;;;6.46;100.00;100223.87;4942185;57;1138971;-69
2022/12/30 22:49:41;;;;;;;10.53;4.87;;;;;;;6.44;100.00;100210.00;5116988;56;1138782;-69
2022/12/30 22:54:47;;;;;;;14.70;7.03;;;;;;;6.42;100.00;100199.22;5121785;56;1138913;-70
2022/12/30 22:59:53;;;;;;;11.80;5.73;;;;;;;6.45;100.00;100197.70;5141927;56;1140836;-70
2022/12/30 23:04:59;;;;;;;13.53;5.97;;;;;;;6.45;100.00;100182.79;5111900;56;1140837;-70
2022/12/30 23:10:12;;;;;;;17.15;6.47;;;;;;;6.42;100.00;100173.80;5101580;56;1138836;-68
2022/12/30 23:20:43;;;;;;;21.17;7.87;;;;;;;6.43;100.00;100144.42;5043288;56;1138735;-68
2022/12/30 23:25:48;;;;;;;19.70;8.20;;;;;;;6.44;100.00;100133.82;5117721;56;1138920;-67
2022/12/30 23:30:54;;;;;;;11.43;5.87;;;;;;;6.48;100.00;100120.86;5147077;56;1141000;-68
2022/12/30 23:36:06;;;;;;;10.98;5.35;;;;;;;6.50;100.00;100125.55;5049440;56;1138779;-68
2022/12/30 23:41:14;;;;;;;10.20;5.13;;;;;;;6.51;100.00;100119.81;5052138;56;1138955;-68
2022/12/30 23:46:20;;;;;;;13.87;6.63;;;;;;;6.57;100.00;100111.53;5110545;56;1140871;-68
2022/12/30 23:51:27;;;;;;;13.90;7.23;;;;;;;6.58;100.00;100103.99;5042494;57;1139012;-69
2022/12/30 23:56:33;;;;;;;13.75;7.53;;;;;;;6.56;100.00;100096.25;5042824;57;1139007;-70
